createdAt,value
2023-04-16T00:01:04.981Z,9.10
2023-04-16T00:03:31.766Z,9.60
2023-04-16T00:05:59.264Z,5.72
2023-04-16T00:08:25.840Z,7.57
2023-04-16T00:10:53.771Z,12.68
2023-04-16T00:13:21.096Z,10.60
2023-04-16T00:15:47.584Z,5.30
2023-04-16T00:18:14.261Z,5.18
2023-04-16T00:20:40.808Z,11.52
2023-04-16T00:23:08.402Z,9.57
2023-04-16T00:25:34.847Z,6.10
2023-04-16T00:28:01.380Z,6.15
2023-04-16T00:30:27.948Z,8.25
2023-04-16T00:32:54.594Z,5.78
2023-04-16T00:35:21.398Z,8.68
2023-04-16T00:37:47.869Z,5.10
2023-04-16T00:40:14.412Z,8.18
2023-04-16T00:42:41.377Z,8.25
2023-04-16T00:45:08.620Z,5.18
2023-04-16T00:47:35.473Z,9.88
2023-04-16T00:50:04.282Z,8.63
2023-04-16T00:52:32.952Z,8.98
2023-04-16T00:54:59.591Z,7.82
2023-04-16T00:57:27.149Z,7.75
2023-04-16T00:59:54.450Z,14.23
2023-04-16T01:02:21.098Z,12.55
2023-04-16T01:04:47.668Z,6.30
2023-04-16T01:07:14.189Z,8.95
2023-04-16T01:09:40.804Z,7.75
2023-04-16T01:12:07.296Z,8.10
2023-04-16T01:14:36.286Z,8.77
2023-04-16T01:17:03.952Z,11.00
2023-04-16T01:19:36.460Z,10.50
2023-04-16T01:22:03.921Z,7.45
2023-04-16T01:24:30.743Z,7.82
2023-04-16T01:27:00.696Z,9.40
2023-04-16T01:29:27.675Z,12.50
2023-04-16T01:31:54.519Z,14.27
2023-04-16T01:34:21.178Z,10.18
2023-04-16T01:36:47.660Z,9.43
2023-04-16T01:39:16.405Z,14.93
2023-04-16T01:41:43.697Z,11.15
2023-04-16T01:44:10.356Z,11.10
2023-04-16T01:46:38.154Z,14.23
2023-04-16T01:49:07.343Z,10.77
2023-04-16T01:51:34.197Z,15.90
2023-04-16T01:54:01.189Z,10.43
2023-04-16T01:56:27.729Z,14.50
2023-04-16T01:58:54.255Z,12.60
2023-04-16T02:01:20.960Z,10.80
2023-04-16T02:03:48.244Z,9.50
2023-04-16T02:06:15.125Z,12.73
2023-04-16T02:08:42.012Z,15.98
2023-04-16T02:11:08.677Z,15.07
2023-04-16T02:13:35.487Z,11.65
2023-04-16T02:16:02.725Z,14.25
2023-04-16T02:18:29.266Z,12.63
2023-04-16T02:20:58.669Z,18.75
2023-04-16T02:23:25.373Z,21.60
2023-04-16T02:25:51.857Z,16.80
2023-04-16T02:28:18.414Z,17.17
2023-04-16T02:30:45.295Z,16.05
2023-04-16T02:33:12.668Z,18.35
2023-04-16T02:35:40.548Z,16.67
2023-04-16T02:38:07.551Z,16.38
2023-04-16T02:40:34.165Z,15.55
2023-04-16T02:43:02.084Z,15.50
2023-04-16T02:45:28.586Z,16.70
2023-04-16T02:47:55.097Z,18.48
2023-04-16T02:50:21.671Z,15.77
2023-04-16T02:52:48.651Z,19.50
2023-04-16T02:55:15.371Z,14.43
2023-04-16T02:57:42.706Z,15.57
2023-04-16T03:00:10.033Z,15.05
2023-04-16T03:02:36.944Z,15.77
2023-04-16T03:05:04.205Z,17.77
2023-04-16T03:07:30.851Z,14.05
2023-04-16T03:09:57.483Z,20.55
2023-04-16T03:12:24.223Z,18.83
2023-04-16T03:14:52.593Z,11.70
2023-04-16T03:17:19.273Z,17.25
2023-04-16T03:19:46.205Z,14.65
2023-04-16T03:22:12.852Z,18.17
2023-04-16T03:24:39.450Z,19.77
2023-04-16T03:27:06.072Z,19.38
2023-04-16T03:29:32.538Z,17.05
2023-04-16T03:31:59.184Z,19.23
2023-04-16T03:34:25.917Z,20.30
2023-04-16T03:36:52.453Z,20.70
2023-04-16T03:39:19.513Z,18.45
2023-04-16T03:41:46.369Z,14.45
2023-04-16T03:44:12.915Z,15.15
2023-04-16T03:46:39.463Z,11.50
2023-04-16T03:49:06.338Z,19.30
2023-04-16T03:51:33.000Z,16.65
2023-04-16T03:53:59.548Z,12.48
2023-04-16T03:56:26.029Z,16.45
2023-04-16T03:58:52.652Z,22.80
2023-04-16T04:01:19.268Z,19.17
2023-04-16T04:03:46.095Z,19.23
2023-04-16T04:06:12.755Z,20.55
2023-04-16T04:08:39.302Z,19.60
2023-04-16T04:11:05.784Z,19.55
2023-04-16T04:13:32.448Z,17.50
2023-04-16T04:15:59.026Z,14.73
2023-04-16T04:18:25.671Z,19.63
2023-04-16T04:20:52.429Z,22.63
2023-04-16T04:23:19.251Z,15.43
2023-04-16T04:25:46.137Z,16.90
2023-04-16T04:28:12.650Z,18.25
2023-04-16T04:30:39.151Z,19.00
2023-04-16T04:33:06.465Z,15.07
2023-04-16T04:35:33.783Z,18.88
2023-04-16T04:38:02.514Z,19.05
2023-04-16T04:40:29.327Z,14.57
2023-04-16T04:42:56.302Z,23.10
2023-04-16T04:45:25.593Z,16.65
2023-04-16T04:47:55.374Z,16.80
2023-04-16T04:50:22.449Z,15.73
2023-04-16T04:52:49.105Z,20.05
2023-04-16T04:55:16.201Z,19.25
2023-04-16T04:57:42.779Z,24.75
2023-04-16T05:00:09.769Z,19.60
2023-04-16T05:02:36.618Z,19.27
2023-04-16T05:05:03.949Z,17.77
2023-04-16T05:07:30.751Z,21.00
2023-04-16T05:09:57.342Z,20.40
2023-04-16T05:12:24.129Z,19.48
2023-04-16T05:14:50.856Z,17.80
2023-04-16T05:17:17.398Z,20.25
2023-04-16T05:19:43.895Z,14.77
2023-04-16T05:22:10.645Z,18.33
2023-04-16T05:24:37.042Z,18.85
2023-04-16T05:27:03.628Z,19.50
2023-04-16T05:29:30.584Z,19.30
2023-04-16T05:31:57.212Z,16.90
2023-04-16T05:34:23.715Z,25.50
2023-04-16T05:36:50.435Z,22.45
2023-04-16T05:39:17.318Z,20.90
2023-04-16T05:41:43.936Z,23.40
2023-04-16T05:44:10.544Z,21.65
2023-04-16T05:46:37.079Z,23.92
2023-04-16T05:49:03.746Z,25.10
2023-04-16T05:51:30.221Z,24.13
2023-04-16T05:53:56.662Z,20.67
2023-04-16T05:56:23.565Z,22.05
2023-04-16T05:58:50.132Z,21.73
2023-04-16T06:01:16.695Z,22.77
2023-04-16T06:03:43.633Z,23.63
2023-04-16T06:06:10.364Z,17.52
2023-04-16T06:08:36.820Z,19.08
2023-04-16T06:11:03.813Z,18.15
2023-04-16T06:13:30.435Z,18.60
2023-04-16T06:15:56.999Z,18.45
2023-04-16T06:18:23.700Z,18.70
2023-04-16T06:20:50.516Z,25.45
2023-04-16T06:23:17.321Z,22.63
2023-04-16T06:25:43.883Z,19.38
2023-04-16T06:28:10.285Z,22.73
2023-04-16T06:30:36.840Z,20.17
2023-04-16T06:33:03.594Z,21.63
2023-04-16T06:35:30.065Z,23.15
2023-04-16T06:37:56.894Z,24.98
2023-04-16T06:40:23.512Z,18.73
2023-04-16T06:42:50.062Z,19.42
2023-04-16T06:45:16.597Z,19.92
2023-04-16T06:47:43.136Z,23.23
2023-04-16T06:50:09.987Z,24.48
2023-04-16T06:52:36.955Z,21.77
2023-04-16T06:55:03.767Z,25.15
2023-04-16T06:57:30.672Z,20.77
2023-04-16T06:59:57.217Z,17.85
2023-04-16T07:02:25.038Z,22.23
2023-04-16T07:04:52.432Z,22.55
2023-04-16T07:07:19.084Z,20.17
2023-04-16T07:09:45.743Z,22.00
2023-04-16T07:12:12.473Z,23.33
2023-04-16T07:14:39.466Z,23.08
2023-04-16T07:17:06.016Z,22.92
2023-04-16T07:19:32.792Z,24.42
2023-04-16T07:22:00.073Z,30.33
2023-04-16T07:24:26.602Z,21.80
2023-04-16T07:26:53.111Z,22.25
2023-04-16T07:29:19.492Z,24.05
2023-04-16T07:31:46.578Z,18.58
2023-04-16T07:34:13.209Z,15.32
2023-04-16T07:36:39.934Z,19.15
2023-04-16T07:39:06.419Z,18.20
2023-04-16T07:41:33.473Z,19.70
2023-04-16T07:44:00.102Z,18.83
2023-04-16T07:46:30.494Z,20.48
2023-04-16T07:49:02.695Z,19.92
2023-04-16T07:51:29.182Z,23.20
2023-04-16T07:53:58.744Z,22.83
2023-04-16T07:56:26.007Z,16.30
2023-04-16T07:58:52.532Z,21.38
2023-04-16T08:01:19.100Z,20.13
2023-04-16T08:03:46.000Z,21.00
2023-04-16T08:06:12.697Z,14.07
2023-04-16T08:08:39.320Z,17.90
2023-04-16T08:11:06.010Z,16.17
2023-04-16T08:13:33.617Z,15.27
2023-04-16T08:16:00.469Z,16.15
2023-04-16T08:18:27.116Z,11.90
2023-04-16T08:20:53.556Z,12.18
2023-04-16T08:23:21.030Z,13.85
2023-04-16T08:25:47.857Z,15.68
2023-04-16T08:28:14.453Z,14.70
2023-04-16T08:30:41.028Z,15.40
2023-04-16T08:33:07.713Z,14.07
2023-04-16T08:35:34.334Z,14.40
2023-04-16T08:38:02.461Z,13.05
2023-04-16T08:40:30.004Z,12.02
2023-04-16T08:43:00.139Z,13.15
2023-04-16T08:45:27.637Z,11.85
2023-04-16T08:47:54.342Z,11.75
2023-04-16T08:50:26.126Z,12.55
2023-04-16T08:52:56.606Z,11.55
2023-04-16T08:55:47.592Z,10.25
2023-04-16T08:58:23.832Z,11.50
2023-04-16T09:00:51.140Z,11.82
2023-04-16T09:03:20.216Z,11.63
2023-04-16T09:05:47.318Z,11.43
2023-04-16T09:08:14.066Z,10.43
2023-04-16T09:10:40.747Z,8.80
2023-04-16T09:13:09.595Z,10.80
2023-04-16T09:15:36.356Z,11.02
2023-04-16T09:18:02.991Z,10.73
2023-04-16T09:20:29.602Z,11.73
2023-04-16T09:22:57.206Z,11.85
2023-04-16T09:25:25.103Z,11.07
2023-04-16T09:27:51.690Z,9.88
2023-04-16T09:30:23.000Z,12.50
2023-04-16T09:32:51.809Z,10.02
2023-04-16T09:35:19.873Z,10.80
2023-04-16T09:37:58.753Z,12.88
2023-04-16T09:40:27.342Z,8.55
2023-04-16T09:42:58.105Z,12.50
2023-04-16T09:45:24.746Z,12.23
2023-04-16T09:47:51.252Z,9.43
2023-04-16T09:50:19.767Z,12.05
2023-04-16T09:52:50.590Z,10.38
2023-04-16T09:55:22.805Z,11.65
2023-04-16T09:57:49.267Z,12.52
2023-04-16T10:00:18.945Z,12.07
2023-04-16T10:02:46.599Z,12.23
2023-04-16T10:05:17.780Z,12.05
2023-04-16T10:07:44.291Z,13.05
2023-04-16T10:10:11.179Z,11.05
2023-04-16T10:12:37.803Z,11.60
2023-04-16T10:15:04.986Z,11.18
2023-04-16T10:17:31.963Z,14.85
2023-04-16T10:19:59.046Z,16.60
2023-04-16T10:22:26.357Z,15.45
2023-04-16T10:24:53.518Z,17.45
2023-04-16T10:27:20.777Z,17.30
2023-04-16T10:29:48.902Z,12.20
2023-04-16T10:32:17.744Z,15.52
2023-04-16T10:34:44.461Z,14.50
2023-04-16T10:37:12.021Z,14.38
2023-04-16T10:39:38.615Z,17.92
2023-04-16T10:42:12.733Z,16.95
2023-04-16T10:44:44.251Z,16.10
2023-04-16T10:47:12.940Z,17.85
2023-04-16T10:49:42.762Z,16.65
2023-04-16T10:52:17.051Z,15.23
2023-04-16T10:54:43.891Z,18.98
2023-04-16T10:57:16.194Z,21.05
2023-04-16T10:59:44.083Z,19.73
2023-04-16T11:02:18.078Z,18.02
2023-04-16T11:04:49.538Z,19.35
2023-04-16T11:07:21.466Z,15.75
2023-04-16T11:09:53.752Z,17.58
2023-04-16T11:12:22.997Z,17.80
2023-04-16T11:14:55.111Z,16.92
2023-04-16T11:17:22.054Z,16.95
2023-04-16T11:19:48.845Z,16.45
2023-04-16T11:22:17.557Z,16.13
2023-04-16T11:24:45.680Z,18.15
2023-04-16T11:27:13.882Z,14.68
2023-04-16T11:29:40.561Z,15.18
2023-04-16T11:32:07.642Z,16.08
2023-04-16T11:34:34.463Z,13.88
2023-04-16T11:37:00.991Z,14.57
2023-04-16T11:39:27.766Z,18.25
2023-04-16T11:41:55.601Z,16.95
2023-04-16T11:44:27.275Z,18.88
2023-04-16T11:46:55.022Z,15.27
2023-04-16T11:49:29.052Z,16.30
2023-04-16T11:51:56.270Z,17.23
2023-04-16T11:54:24.248Z,19.13
2023-04-16T11:56:53.355Z,20.42
2023-04-16T11:59:23.300Z,16.17
2023-04-16T12:01:57.146Z,19.02
2023-04-16T12:04:26.183Z,16.85
2023-04-16T12:07:10.239Z,19.23
2023-04-16T12:09:41.596Z,14.48
2023-04-16T12:12:32.040Z,20.52
2023-04-16T12:15:03.881Z,15.75
2023-04-16T12:17:35.219Z,16.00
2023-04-16T12:20:11.132Z,16.50
2023-04-16T12:22:39.803Z,19.45
2023-04-16T12:25:15.613Z,16.90
2023-04-16T12:27:53.385Z,15.25
2023-04-16T12:30:23.037Z,14.48
2023-04-16T12:33:17.068Z,14.73
2023-04-16T12:35:44.972Z,16.08
2023-04-16T12:38:12.144Z,17.05
2023-04-16T12:40:38.730Z,13.13
2023-04-16T12:43:05.567Z,13.73
2023-04-16T12:45:32.209Z,11.68
2023-04-16T12:47:59.028Z,15.40
2023-04-16T12:50:26.172Z,13.35
2023-04-16T12:52:52.868Z,13.90
2023-04-16T12:55:19.631Z,15.10
2023-04-16T12:57:48.804Z,13.88
2023-04-16T13:00:16.358Z,17.00
2023-04-16T13:02:43.065Z,15.73
2023-04-16T13:05:10.107Z,18.95
2023-04-16T13:07:36.662Z,17.13
2023-04-16T13:10:03.519Z,20.50
2023-04-16T13:12:30.126Z,21.67
2023-04-16T13:14:56.580Z,18.52
2023-04-16T13:17:23.296Z,21.90
2023-04-16T13:19:49.937Z,21.98
2023-04-16T13:22:16.458Z,20.95
2023-04-16T13:24:42.990Z,18.13
2023-04-16T13:27:09.657Z,19.10
2023-04-16T13:29:36.844Z,22.35
2023-04-16T13:32:04.065Z,22.50
2023-04-16T13:34:30.855Z,24.23
2023-04-16T13:36:57.360Z,18.48
2023-04-16T13:39:24.082Z,25.17
2023-04-16T13:41:51.632Z,18.00
2023-04-16T13:44:18.365Z,21.35
2023-04-16T13:46:47.795Z,22.52
2023-04-16T13:49:14.865Z,20.15
2023-04-16T13:51:44.493Z,23.60
2023-04-16T13:54:11.067Z,20.95
2023-04-16T13:56:37.815Z,19.40
2023-04-16T13:59:04.449Z,17.90
2023-04-16T14:01:31.220Z,15.73
2023-04-16T14:03:59.376Z,17.13
2023-04-16T14:06:27.132Z,18.88
2023-04-16T14:08:53.705Z,15.10
2023-04-16T14:11:20.656Z,21.17
2023-04-16T14:13:47.555Z,18.35
2023-04-16T14:16:14.044Z,16.75
2023-04-16T14:18:42.365Z,15.63
2023-04-16T14:21:09.220Z,18.20
2023-04-16T14:23:35.840Z,14.98
2023-04-16T14:26:02.427Z,15.35
2023-04-16T14:28:28.953Z,18.88
2023-04-16T14:30:55.575Z,14.50
2023-04-16T14:33:22.301Z,13.60
2023-04-16T14:35:50.393Z,16.63
2023-04-16T14:38:16.990Z,17.63
2023-04-16T14:40:43.547Z,19.30
2023-04-16T14:43:11.446Z,17.20
2023-04-16T14:45:39.146Z,15.25
2023-04-16T14:48:06.318Z,16.60
2023-04-16T14:50:37.857Z,17.65
2023-04-16T14:53:07.626Z,16.40
2023-04-16T14:55:34.333Z,15.98
2023-04-16T14:58:00.986Z,16.42
2023-04-16T15:00:27.685Z,17.88
2023-04-16T15:02:57.743Z,12.15
2023-04-16T15:05:24.562Z,15.00
2023-04-16T15:07:51.344Z,17.88
2023-04-16T15:10:17.894Z,15.52
2023-04-16T15:12:45.482Z,17.13
2023-04-16T15:15:12.014Z,14.57
2023-04-16T15:17:38.648Z,18.17
2023-04-16T15:20:08.541Z,17.85
2023-04-16T15:22:37.163Z,15.70
2023-04-16T15:25:04.649Z,15.98
2023-04-16T15:27:31.058Z,18.20
2023-04-16T15:29:57.763Z,14.60
2023-04-16T15:32:24.394Z,17.75
2023-04-16T15:34:51.005Z,17.90
2023-04-16T15:37:17.547Z,17.92
2023-04-16T15:39:44.864Z,16.30
2023-04-16T15:42:11.742Z,18.88
2023-04-16T15:44:38.143Z,16.92
2023-04-16T15:47:06.396Z,17.85
2023-04-16T15:49:32.987Z,17.90
2023-04-16T15:52:00.448Z,17.38
2023-04-16T15:54:27.225Z,19.33
2023-04-16T15:56:53.723Z,20.60
2023-04-16T15:59:20.202Z,18.33
2023-04-16T16:01:46.707Z,20.02
2023-04-16T16:04:13.605Z,16.38
2023-04-16T16:06:40.396Z,15.65
2023-04-16T16:09:06.914Z,15.27
2023-04-16T16:11:33.758Z,26.27
2023-04-16T16:14:03.293Z,21.95
2023-04-16T16:16:30.042Z,19.70
2023-04-16T16:18:56.477Z,19.25
2023-04-16T16:21:23.081Z,15.77
2023-04-16T16:23:49.610Z,16.63
2023-04-16T16:26:16.089Z,22.80
2023-04-16T16:28:44.678Z,19.75
2023-04-16T16:31:12.258Z,20.02
2023-04-16T16:33:40.431Z,20.00
2023-04-16T16:36:10.827Z,19.00
2023-04-16T16:38:37.968Z,21.70
2023-04-16T16:41:04.415Z,24.38
2023-04-16T16:43:31.114Z,15.90
2023-04-16T16:45:57.629Z,19.50
2023-04-16T16:48:24.122Z,23.42
2023-04-16T16:50:50.667Z,19.60
2023-04-16T16:53:17.095Z,19.85
2023-04-16T16:55:43.602Z,23.95
2023-04-16T16:58:11.162Z,22.98
2023-04-16T17:00:38.083Z,23.58
2023-04-16T17:03:04.891Z,21.13
2023-04-16T17:05:31.702Z,18.52
2023-04-16T17:07:58.500Z,20.83
2023-04-16T17:10:25.123Z,22.63
2023-04-16T17:12:51.934Z,19.38
2023-04-16T17:15:21.459Z,22.35
2023-04-16T17:17:48.608Z,18.35
2023-04-16T17:20:15.771Z,22.15
2023-04-16T17:22:42.752Z,22.23
2023-04-16T17:25:09.588Z,21.50
2023-04-16T17:27:36.370Z,18.90
2023-04-16T17:30:05.677Z,17.45
2023-04-16T17:32:32.708Z,19.70
2023-04-16T17:35:00.819Z,21.15
2023-04-16T17:37:27.409Z,19.20
2023-04-16T17:39:54.194Z,23.35
2023-04-16T17:42:20.670Z,22.83
2023-04-16T17:44:47.502Z,18.67
2023-04-16T17:47:14.193Z,22.23
2023-04-16T17:49:40.864Z,21.38
2023-04-16T17:52:07.501Z,22.73
2023-04-16T17:54:33.974Z,20.80
2023-04-16T17:57:00.647Z,20.08
2023-04-16T17:59:27.449Z,22.75
2023-04-16T18:01:54.788Z,12.82
2023-04-16T18:04:21.687Z,21.25
2023-04-16T18:06:48.521Z,24.20
2023-04-16T18:09:15.576Z,23.75
2023-04-16T18:11:42.455Z,28.02
2023-04-16T18:14:10.209Z,21.70
2023-04-16T18:16:37.033Z,23.80
2023-04-16T18:19:03.510Z,18.67
2023-04-16T18:21:30.347Z,25.88
2023-04-16T18:23:57.538Z,23.02
2023-04-16T18:26:25.242Z,24.15
2023-04-16T18:28:52.054Z,20.45
2023-04-16T18:31:21.033Z,25.55
2023-04-16T18:33:55.305Z,24.48
2023-04-16T18:36:23.321Z,23.13
2023-04-16T18:39:00.177Z,31.63
2023-04-16T18:41:28.482Z,25.15
2023-04-16T18:43:55.015Z,26.25
2023-04-16T18:46:21.532Z,26.40
2023-04-16T18:48:48.175Z,24.38
2023-04-16T18:51:16.309Z,26.73
2023-04-16T18:53:44.527Z,27.42
2023-04-16T18:56:11.691Z,26.17
2023-04-16T18:58:38.353Z,26.38
2023-04-16T19:01:07.721Z,25.48
2023-04-16T19:03:34.512Z,31.35
2023-04-16T19:06:01.144Z,24.23
2023-04-16T19:08:27.914Z,26.30
2023-04-16T19:10:54.355Z,26.05
2023-04-16T19:13:21.110Z,23.33
2023-04-16T19:15:47.696Z,26.02
2023-04-16T19:18:14.334Z,29.38
2023-04-16T19:20:41.156Z,25.20
2023-04-16T19:23:09.254Z,26.67
2023-04-16T19:25:39.051Z,27.23
2023-04-16T19:28:05.740Z,29.17
2023-04-16T19:30:32.417Z,25.05
2023-04-16T19:32:59.153Z,18.05
2023-04-16T19:35:25.965Z,26.38
2023-04-16T19:37:52.562Z,25.92
2023-04-16T19:40:19.264Z,30.00
2023-04-16T19:42:45.932Z,26.48
2023-04-16T19:45:12.364Z,25.30
2023-04-16T19:47:38.979Z,26.40
2023-04-16T19:50:06.126Z,23.10
2023-04-16T19:52:37.433Z,26.50
2023-04-16T19:55:05.241Z,27.15
2023-04-16T19:57:31.893Z,29.70
2023-04-16T19:59:58.367Z,24.77
2023-04-16T20:02:24.930Z,30.92
2023-04-16T20:04:53.039Z,31.45
2023-04-16T20:07:20.117Z,27.92
2023-04-16T20:09:46.528Z,31.45
2023-04-16T20:12:13.252Z,31.27
2023-04-16T20:14:40.376Z,25.95
2023-04-16T20:17:09.978Z,30.13
2023-04-16T20:19:38.384Z,31.10
2023-04-16T20:22:05.070Z,28.85
2023-04-16T20:24:31.638Z,27.67
2023-04-16T20:26:58.123Z,26.83
2023-04-16T20:29:24.640Z,32.90
2023-04-16T20:31:51.326Z,28.58
2023-04-16T20:34:17.709Z,36.70
2023-04-16T20:36:44.455Z,30.92
2023-04-16T20:39:11.626Z,27.33
2023-04-16T20:41:43.902Z,24.42
2023-04-16T20:44:18.102Z,31.45
2023-04-16T20:46:49.612Z,31.67
2023-04-16T20:49:17.591Z,32.70
2023-04-16T20:51:45.445Z,33.65
2023-04-16T20:54:12.025Z,35.47
2023-04-16T20:56:38.445Z,31.60
2023-04-16T20:59:05.052Z,34.17
2023-04-16T21:01:33.383Z,27.67
2023-04-16T21:04:00.180Z,30.85
2023-04-16T21:06:27.282Z,32.05
2023-04-16T21:08:53.865Z,38.17
2023-04-16T21:11:20.713Z,31.42
2023-04-16T21:13:47.408Z,33.10
2023-04-16T21:16:13.865Z,31.55
2023-04-16T21:18:40.482Z,35.17
2023-04-16T21:21:07.068Z,34.10
2023-04-16T21:23:33.833Z,37.20
2023-04-16T21:26:00.337Z,35.45
2023-04-16T21:28:27.295Z,31.98
2023-04-16T21:30:53.862Z,30.52
2023-04-16T21:33:21.745Z,32.38
2023-04-16T21:35:55.140Z,33.38
2023-04-16T21:38:22.085Z,40.60
2023-04-16T21:40:51.368Z,25.45
2023-04-16T21:43:17.905Z,29.13
2023-04-16T21:45:44.674Z,26.88
2023-04-16T21:48:11.312Z,32.58
2023-04-16T21:50:38.211Z,29.02
2023-04-16T21:53:06.354Z,24.75
2023-04-16T21:55:34.658Z,28.05
2023-04-16T21:58:01.669Z,25.73
2023-04-16T22:00:28.661Z,26.90
2023-04-16T22:02:56.509Z,24.95
2023-04-16T22:05:25.706Z,24.88
2023-04-16T22:07:52.771Z,26.58
2023-04-16T22:10:19.279Z,30.80
2023-04-16T22:12:46.625Z,30.48
2023-04-16T22:15:14.090Z,31.42
2023-04-16T22:17:41.171Z,30.65
2023-04-16T22:20:13.229Z,31.80
2023-04-16T22:22:40.991Z,32.72
2023-04-16T22:25:08.020Z,31.45
2023-04-16T22:27:34.685Z,30.50
2023-04-16T22:30:01.674Z,32.17
2023-04-16T22:32:30.158Z,30.60
2023-04-16T22:34:56.876Z,38.20
2023-04-16T22:37:23.593Z,30.45
2023-04-16T22:39:50.326Z,33.45
2023-04-16T22:42:16.870Z,32.92
2023-04-16T22:44:43.423Z,33.30
2023-04-16T22:47:10.044Z,31.90
2023-04-16T22:49:36.552Z,37.22
2023-04-16T22:52:03.251Z,34.53
2023-04-16T22:54:30.475Z,37.55
2023-04-16T22:56:57.621Z,35.28
2023-04-16T22:59:24.746Z,31.67
2023-04-16T23:01:51.963Z,33.55
2023-04-16T23:04:18.653Z,33.90
2023-04-16T23:06:46.460Z,33.72
2023-04-16T23:09:13.288Z,33.80
2023-04-16T23:11:40.112Z,39.97
2023-04-16T23:14:06.650Z,35.58
2023-04-16T23:16:33.214Z,35.70
2023-04-16T23:18:59.646Z,35.30
2023-04-16T23:21:26.337Z,32.97
2023-04-16T23:23:54.442Z,37.13
2023-04-16T23:26:21.242Z,33.20
2023-04-16T23:28:47.682Z,35.08
2023-04-16T23:31:14.312Z,30.35
2023-04-16T23:33:41.093Z,33.65
2023-04-16T23:36:08.108Z,33.03
2023-04-16T23:38:34.587Z,33.67
2023-04-16T23:41:01.062Z,36.38
2023-04-16T23:43:27.930Z,34.63
2023-04-16T23:45:54.651Z,38.65
2023-04-16T23:48:21.336Z,36.60
2023-04-16T23:50:47.751Z,38.80
2023-04-16T23:53:14.382Z,37.70
2023-04-16T23:55:40.797Z,39.50
2023-04-16T23:58:07.193Z,38.90
